Time;durP1;ratioP1;P1;durP2;ratioP2;P2;SDS_P1;SDS_P2;PMS_P1;PMS_P2;Temp;Humidity;BMP_temperature;BMP_pressure;BME280_temperature;BME280_humidity;BME280_pressure;Samples;Min_cycle;Max_cycle;Signal;HPM_P1;HPM_P2
2022/04/20 00:01:42;;;;;;;0.30;0.30;;;12.00;51.90;;;-141.50;100.00;62695.63;4957478;28;21028;-67
2022/04/20 00:04:11;;;;;;;0.30;0.20;;;11.90;51.80;;;-141.50;100.00;62695.63;4959002;28;20648;-67
2022/04/20 00:06:39;;;;;;;0.30;0.30;;;11.90;51.90;;;-141.50;100.00;62695.63;4959470;28;20628;-67
2022/04/20 00:09:06;;;;;;;9.83;1.47;;;11.80;52.00;;;-141.50;100.00;62695.63;4956433;28;20644;-67
2022/04/20 00:11:33;;;;;;;0.30;0.30;;;11.80;52.00;;;-141.50;100.00;62695.63;4968028;28;20627;-67
2022/04/20 00:14:00;;;;;;;0.30;0.30;;;11.80;52.00;;;-141.50;100.00;62695.63;4969305;28;20661;-67
2022/04/20 00:16:27;;;;;;;0.30;0.30;;;11.70;52.20;;;-141.50;100.00;62695.63;4973339;28;20625;-67
2022/04/20 00:18:54;;;;;;;0.30;0.30;;;11.70;52.30;;;-141.50;100.00;62695.63;4965230;28;21232;-67
2022/04/20 00:21:26;;;;;;;0.30;0.30;;;11.70;52.40;;;-141.50;100.00;62695.63;4970741;28;20675;-66
2022/04/20 00:23:54;;;;;;;0.30;0.27;;;11.70;52.70;;;-141.50;100.00;62695.63;4969922;28;20751;-66
2022/04/20 00:26:21;;;;;;;0.30;0.30;;;11.70;52.80;;;-141.50;100.00;62695.63;4959373;28;20679;-66
2022/04/20 00:28:48;;;;;;;0.57;0.53;;;11.60;53.00;;;-141.50;100.00;62695.63;4952827;28;20723;-66
2022/04/20 00:31:16;;;;;;;0.30;0.30;;;11.50;53.30;;;-141.50;100.00;62695.63;4961095;28;20645;-66
2022/04/20 00:33:43;;;;;;;0.30;0.20;;;11.50;53.40;;;-141.50;100.00;62695.63;4965351;28;20635;-66
2022/04/20 00:36:09;;;;;;;1.33;1.27;;;11.50;53.20;;;-141.50;100.00;62695.63;4985865;28;20635;-67
2022/04/20 00:38:37;;;;;;;0.30;0.30;;;11.40;53.40;;;-141.50;100.00;62695.63;4970995;28;20643;-65
2022/04/20 00:41:05;;;;;;;0.30;0.30;;;11.40;53.50;;;-141.50;100.00;62695.63;4964564;28;20631;-67
2022/04/20 00:43:32;;;;;;;0.30;0.30;;;11.40;53.70;;;-141.50;100.00;62695.63;4949153;28;20707;-66
2022/04/20 00:46:01;;;;;;;0.30;0.30;;;11.40;53.40;;;-141.50;100.00;62695.63;4968011;28;20698;-67
2022/04/20 00:48:28;;;;;;;0.30;0.20;;;11.40;53.10;;;-141.50;100.00;62695.63;4971992;28;20698;-67
2022/04/20 00:50:55;;;;;;;0.30;0.20;;;11.40;53.30;;;-141.50;100.00;62695.63;4973664;28;20639;-66
2022/04/20 00:53:22;;;;;;;0.30;0.20;;;11.30;53.60;;;-141.50;100.00;62695.63;4971996;28;21283;-66
2022/04/20 00:55:49;;;;;;;0.30;0.27;;;11.20;53.70;;;-141.50;100.00;62695.63;4957748;28;21274;-66
2022/04/20 00:58:15;;;;;;;0.30;0.20;;;11.20;53.90;;;-141.50;100.00;62695.63;4968030;28;20677;-66
2022/04/20 01:00:42;;;;;;;0.30;0.30;;;11.20;54.50;;;-141.50;100.00;62695.63;4953176;28;20592;-66
2022/04/20 01:03:09;;;;;;;0.30;0.20;;;11.20;54.10;;;-141.50;100.00;62695.63;4955660;28;20664;-66
2022/04/20 01:05:37;;;;;;;0.30;0.20;;;11.10;54.30;;;-141.50;100.00;62695.63;4952362;28;20588;-66
2022/04/20 01:08:04;;;;;;;0.30;0.30;;;11.10;54.10;;;-141.50;100.00;62695.63;4970927;28;20761;-65
2022/04/20 01:10:32;;;;;;;0.30;0.20;;;11.10;54.20;;;-141.50;100.00;62695.63;4969422;28;20626;-66
2022/04/20 01:12:59;;;;;;;0.30;0.30;;;11.10;54.20;;;-141.50;100.00;62695.63;4968742;28;20654;-66
2022/04/20 01:15:28;;;;;;;0.30;0.30;;;11.00;54.50;;;-141.50;100.00;62695.63;4950677;28;20687;-66
2022/04/20 01:17:55;;;;;;;0.30;0.20;;;11.00;54.60;;;-141.50;100.00;62695.63;4952223;28;21116;-67
2022/04/20 01:20:22;;;;;;;0.30;0.20;;;11.00;54.70;;;-141.50;100.00;62695.63;4964257;28;20642;-66
2022/04/20 01:22:49;;;;;;;0.30;0.20;;;11.00;54.70;;;-141.50;100.00;62695.63;4970053;28;21244;-66
2022/04/20 01:25:16;;;;;;;0.30;0.30;;;11.00;54.70;;;-141.50;100.00;62695.63;4962460;28;20643;-66
2022/04/20 01:27:43;;;;;;;0.30;0.30;;;10.90;54.80;;;-141.50;100.00;62695.63;4968600;28;20734;-65
2022/04/20 01:30:10;;;;;;;0.30;0.27;;;10.80;55.00;;;-141.50;100.00;62695.63;4961993;28;20733;-67
2022/04/20 01:32:37;;;;;;;0.30;0.30;;;10.80;55.00;;;-141.50;100.00;62695.63;4971039;28;20607;-67
2022/04/20 01:35:05;;;;;;;0.30;0.30;;;10.80;55.00;;;-141.50;100.00;62695.63;4970570;28;20631;-66
2022/04/20 01:37:32;;;;;;;0.30;0.20;;;10.90;54.70;;;-141.50;100.00;62695.63;4966257;28;21076;-64
2022/04/20 01:39:59;;;;;;;0.30;0.23;;;10.70;55.00;;;-141.50;100.00;62695.63;4970341;28;20627;-67
2022/04/20 01:42:26;;;;;;;0.30;0.30;;;10.70;55.10;;;-141.50;100.00;62695.63;4973840;28;21265;-66
2022/04/20 01:44:53;;;;;;;0.30;0.27;;;10.70;55.30;;;-141.50;100.00;62695.63;4975133;28;20706;-66
2022/04/20 01:47:20;;;;;;;0.30;0.27;;;10.60;55.70;;;-141.50;100.00;62695.63;4961575;28;20667;-66
2022/04/20 01:49:47;;;;;;;0.30;0.30;;;10.70;55.50;;;-141.50;100.00;62695.63;4955365;28;20972;-67
2022/04/20 01:52:14;;;;;;;0.30;0.30;;;10.60;55.70;;;-141.50;100.00;62695.63;4967587;28;20642;-66
2022/04/20 01:54:40;;;;;;;0.30;0.30;;;10.50;55.90;;;-141.50;100.00;62695.63;4968828;28;20639;-66
2022/04/20 01:57:08;;;;;;;0.30;0.30;;;10.50;56.00;;;-141.50;100.00;62695.63;4948332;28;20722;-65
2022/04/20 01:59:34;;;;;;;0.30;0.27;;;10.50;56.00;;;-141.50;100.00;62695.63;4966416;28;20643;-67
2022/04/20 02:04:47;;;;;;;0.30;0.30;;;10.40;56.30;;;-141.50;100.00;62695.63;4966464;28;20985;-66
2022/04/20 02:07:14;;;;;;;0.30;0.30;;;10.40;56.70;;;-141.50;100.00;62695.63;4969081;28;20658;-67
2022/04/20 02:09:41;;;;;;;0.30;0.30;;;10.40;56.70;;;-141.50;100.00;62695.63;4974962;28;20675;-67
2022/04/20 02:12:08;;;;;;;0.30;0.20;;;10.30;57.60;;;-141.50;100.00;62695.63;4973596;28;20738;-66
2022/04/20 02:14:35;;;;;;;0.30;0.30;;;10.30;57.10;;;-141.50;100.00;62695.63;4970980;28;20628;-66
2022/04/20 02:17:02;;;;;;;0.30;0.30;;;10.20;57.20;;;-141.50;100.00;62695.63;4955564;28;21011;-66
2022/04/20 02:19:29;;;;;;;0.30;0.30;;;10.20;57.10;;;-141.50;100.00;62695.63;4955125;29;20624;-67
2022/04/20 02:21:56;;;;;;;0.30;0.30;;;10.20;56.90;;;-141.50;100.00;62695.63;4969491;28;21072;-67
2022/04/20 02:24:23;;;;;;;0.30;0.30;;;10.20;57.00;;;-141.50;100.00;62695.63;4956908;28;20623;-67
2022/04/20 02:26:50;;;;;;;0.30;0.20;;;10.10;57.00;;;-141.50;100.00;62695.63;4970933;28;20655;-67
2022/04/20 02:29:17;;;;;;;0.30;0.20;;;10.10;57.10;;;-141.50;100.00;62695.63;4972733;28;20649;-67
2022/04/20 02:31:44;;;;;;;0.30;0.30;;;10.20;57.20;;;-141.50;100.00;62695.63;4974447;28;20611;-66
2022/04/20 02:34:11;;;;;;;0.30;0.20;;;10.20;57.20;;;-141.50;100.00;62695.63;4973249;28;20693;-66
2022/04/20 02:36:38;;;;;;;0.57;0.57;;;10.20;57.30;;;-141.50;100.00;62695.63;4973703;28;20635;-67
2022/04/20 02:39:05;;;;;;;0.30;0.20;;;10.10;57.50;;;-141.50;100.00;62695.63;4986685;28;20643;-66
2022/04/20 02:41:36;;;;;;;0.30;0.20;;;10.10;57.70;;;-141.50;100.00;62695.63;4972777;28;20600;-66
2022/04/20 02:44:04;;;;;;;0.30;0.20;;;10.10;57.70;;;-141.50;100.00;62695.63;4971470;28;20673;-66
2022/04/20 02:46:31;;;;;;;0.30;0.20;;;10.10;58.00;;;-141.50;100.00;62695.63;4959435;28;21196;-65
2022/04/20 02:48:58;;;;;;;0.40;0.40;;;10.10;58.10;;;-141.50;100.00;62695.63;4972158;28;20615;-67
2022/04/20 02:51:28;;;;;;;0.30;0.30;;;10.00;58.40;;;-141.50;100.00;62695.63;4973195;28;20663;-67
2022/04/20 02:53:55;;;;;;;0.30;0.23;;;10.00;58.50;;;-141.50;100.00;62695.63;4968337;28;20654;-67
2022/04/20 02:56:21;;;;;;;0.30;0.30;;;10.00;58.80;;;-141.50;100.00;62695.63;4969130;28;21283;-67
2022/04/20 02:58:50;;;;;;;0.30;0.20;;;10.00;59.30;;;-141.50;100.00;62695.63;4972909;28;20714;-66
2022/04/20 03:01:17;;;;;;;0.30;0.30;;;9.90;59.30;;;-141.50;100.00;62695.63;4963184;28;20734;-67
2022/04/20 03:03:43;;;;;;;0.30;0.30;;;9.90;59.60;;;-141.50;100.00;62695.63;4959321;28;20714;-66
2022/04/20 03:06:11;;;;;;;0.30;0.20;;;9.90;59.70;;;-141.50;100.00;62695.63;4952839;28;21293;-66
2022/04/20 03:08:38;;;;;;;0.30;0.20;;;9.90;60.90;;;-141.50;100.00;62695.63;4954755;28;21137;-66
2022/04/20 03:11:05;;;;;;;0.30;0.30;;;10.00;60.40;;;-141.50;100.00;62695.63;4963768;28;20624;-67
2022/04/20 03:13:32;;;;;;;0.30;0.20;;;9.90;60.50;;;-141.50;100.00;62695.63;4957945;28;20669;-67
2022/04/20 03:15:59;;;;;;;0.30;0.30;;;9.90;60.90;;;-141.50;100.00;62695.63;4965532;28;21213;-66
2022/04/20 03:18:31;;;;;;;0.30;0.20;;;9.80;61.70;;;-141.50;100.00;62695.63;4972538;28;20694;-66
2022/04/20 03:21:04;;;;;;;0.30;0.20;;;9.80;61.50;;;-141.50;100.00;62695.63;4964404;28;20631;-66
2022/04/20 03:23:31;;;;;;;0.30;0.23;;;9.70;61.20;;;-141.50;100.00;62695.63;4952960;28;21073;-65
2022/04/20 03:25:59;;;;;;;0.30;0.30;;;9.70;61.50;;;-141.50;100.00;62695.63;4971022;28;20733;-65
2022/04/20 03:28:26;;;;;;;0.30;0.30;;;9.70;61.20;;;-141.50;100.00;62695.63;4972632;28;20627;-66
2022/04/20 03:30:52;;;;;;;0.30;0.30;;;9.60;61.30;;;-141.50;100.00;62695.63;4951615;28;21237;-67
2022/04/20 03:33:20;;;;;;;0.30;0.27;;;9.60;61.30;;;-141.50;100.00;62695.63;4953046;28;20734;-66
2022/04/20 03:35:47;;;;;;;3.07;2.87;;;9.60;61.80;;;-141.50;100.00;62695.63;4964350;28;20625;-65
2022/04/20 03:38:14;;;;;;;0.30;0.20;;;9.70;61.20;;;-141.50;100.00;62695.63;4970247;28;20666;-66
2022/04/20 03:40:41;;;;;;;0.30;0.30;;;9.60;61.50;;;-141.50;100.00;62695.63;4964681;28;20620;-66
2022/04/20 03:43:08;;;;;;;0.30;0.23;;;9.50;62.70;;;-141.50;100.00;62695.63;4961376;28;20651;-66
2022/04/20 03:45:35;;;;;;;0.30;0.30;;;9.50;62.80;;;-141.50;100.00;62695.63;4956133;28;20643;-66
2022/04/20 03:48:02;;;;;;;0.30;0.20;;;9.40;62.90;;;-141.50;100.00;62695.63;4972555;28;20681;-66
2022/04/20 03:50:30;;;;;;;0.30;0.20;;;9.40;63.10;;;-141.50;100.00;62695.63;4956316;28;20636;-67
2022/04/20 03:52:57;;;;;;;0.30;0.30;;;9.40;63.20;;;-141.50;100.00;62695.63;4970844;28;20631;-67
2022/04/20 03:55:24;;;;;;;0.30;0.20;;;9.40;63.40;;;-141.50;100.00;62695.63;4970886;28;20595;-66
2022/04/20 03:57:51;;;;;;;0.30;0.20;;;9.30;63.50;;;-141.50;100.00;62695.63;4966425;28;20753;-66
2022/04/20 04:00:20;;;;;;;0.30;0.20;;;9.20;64.10;;;-141.50;100.00;62695.63;4955480;28;20603;-66
2022/04/20 04:02:47;;;;;;;0.30;0.30;;;9.20;64.20;;;-141.50;100.00;62695.63;4970256;28;20742;-66
2022/04/20 04:05:14;;;;;;;0.30;0.20;;;9.20;64.40;;;-141.50;100.00;62695.63;4972501;28;20615;-66
2022/04/20 04:07:41;;;;;;;0.30;0.20;;;9.30;64.40;;;-141.50;100.00;62695.63;4957591;28;20750;-66
2022/04/20 04:10:08;;;;;;;0.30;0.20;;;9.20;64.80;;;-141.50;100.00;62695.63;4966242;28;20693;-66
2022/04/20 04:12:36;;;;;;;0.30;0.20;;;9.20;65.00;;;-141.50;100.00;62695.63;4970563;28;20643;-67
2022/04/20 04:15:05;;;;;;;0.30;0.20;;;9.10;65.40;;;-141.50;100.00;62695.63;4972314;28;21040;-67
2022/04/20 04:17:33;;;;;;;0.30;0.30;;;9.10;65.60;;;-141.50;100.00;62695.63;4968017;28;21266;-63
2022/04/20 04:20:00;;;;;;;0.30;0.30;;;9.20;65.70;;;-141.50;100.00;62695.63;4970406;28;20596;-66
2022/04/20 04:22:27;;;;;;;0.50;0.50;;;9.10;66.00;;;-141.50;100.00;62695.63;4963833;28;20667;-66
2022/04/20 04:24:56;;;;;;;0.30;0.30;;;9.10;66.30;;;-141.50;100.00;62695.63;4969213;28;20633;-66
2022/04/20 04:27:23;;;;;;;0.30;0.20;;;9.10;66.70;;;-141.50;100.00;62695.63;4968080;28;20677;-66
2022/04/20 04:29:50;;;;;;;0.30;0.20;;;9.10;66.80;;;-141.50;100.00;62695.63;4964020;28;20730;-66
2022/04/20 04:32:17;;;;;;;0.30;0.30;;;9.10;66.70;;;-141.50;100.00;62695.63;4960559;28;21219;-66
2022/04/20 04:34:44;;;;;;;0.30;0.23;;;9.10;66.80;;;-141.50;100.00;62695.63;4970392;28;20734;-65
2022/04/20 04:37:13;;;;;;;0.30;0.20;;;9.10;66.90;;;-141.50;100.00;62695.63;4955792;28;20664;-66
2022/04/20 04:39:41;;;;;;;0.30;0.23;;;9.10;67.20;;;-141.50;100.00;62695.63;4956592;28;20630;-66
2022/04/20 04:42:08;;;;;;;0.30;0.30;;;9.10;67.30;;;-141.50;100.00;62695.63;4962465;28;20643;-66
2022/04/20 04:44:35;;;;;;;0.30;0.23;;;9.10;67.70;;;-141.50;100.00;62695.63;4966622;28;20674;-65
2022/04/20 04:49:48;;;;;;;0.30;0.30;;;9.20;67.70;;;-141.50;100.00;62695.63;4961601;28;20635;-65
2022/04/20 04:52:15;;;;;;;0.30;0.20;;;9.30;68.10;;;-141.50;100.00;62695.63;4966624;28;20649;-66
2022/04/20 04:54:42;;;;;;;0.30;0.20;;;9.40;67.80;;;-141.50;100.00;62695.63;4965342;28;20906;-66
2022/04/20 04:57:11;;;;;;;0.30;0.20;;;9.60;67.40;;;-141.50;100.00;62695.63;4965956;28;21289;-66
2022/04/20 04:59:40;;;;;;;0.30;0.30;;;9.80;67.10;;;-141.50;100.00;62695.63;4963888;28;20643;-67
2022/04/20 05:02:08;;;;;;;0.30;0.30;;;9.90;66.50;;;-141.50;100.00;62695.63;4960517;28;21076;-66
2022/04/20 05:04:37;;;;;;;0.30;0.20;;;10.10;66.10;;;-141.50;100.00;62695.63;4958023;28;21133;-66
2022/04/20 05:07:05;;;;;;;0.30;0.20;;;10.30;65.40;;;-141.50;100.00;62695.63;4968164;28;20686;-66
2022/04/20 05:09:32;;;;;;;0.30;0.20;;;10.50;64.90;;;-141.50;100.00;62695.63;4969899;28;20620;-66
2022/04/20 05:11:59;;;;;;;0.30;0.30;;;10.90;64.10;;;-141.50;100.00;62695.63;4970826;28;20654;-66
2022/04/20 05:14:26;;;;;;;0.30;0.30;;;11.20;63.90;;;-141.50;100.00;62695.63;4967367;28;20639;-66
2022/04/20 05:16:55;;;;;;;0.30;0.20;;;;;;;-141.50;100.00;62695.63;4965873;28;20666;-66
2022/04/20 05:19:22;;;;;;;0.30;0.30;;;11.70;60.50;;;-141.50;100.00;62695.63;4970468;28;20615;-66
2022/04/20 05:21:49;;;;;;;0.30;0.30;;;12.00;60.00;;;-141.50;100.00;62695.63;4960058;28;20648;-66
2022/04/20 05:24:16;;;;;;;0.30;0.30;;;12.20;59.00;;;-141.50;100.00;62695.63;4957809;28;20651;-66
2022/04/20 05:26:43;;;;;;;4.87;1.73;;;12.60;58.40;;;-141.50;100.00;62695.63;4970811;28;20644;-67
2022/04/20 05:29:11;;;;;;;0.30;0.20;;;12.70;58.00;;;-141.50;100.00;62695.63;4970667;28;20638;-66
2022/04/20 05:31:38;;;;;;;0.30;0.20;;;12.80;57.30;;;-141.50;100.00;62695.63;4965717;28;20828;-65
2022/04/20 05:34:05;;;;;;;0.30;0.30;;;13.00;56.70;;;-141.50;100.00;62695.63;4968977;28;20658;-66
2022/04/20 05:41:39;;;;;;;0.30;0.30;;;13.60;56.00;;;-141.50;100.00;62695.63;4970025;28;20643;-65
2022/04/20 05:42:04;;;;;;;0.40;0.40;;;14.70;54.00;;;-141.50;100.00;62695.63;4952461;28;20634;-66
2022/04/20 05:44:31;;;;;;;0.47;0.47;;;15.30;52.30;;;-141.50;100.00;62695.63;4961449;28;20662;-67
2022/04/20 05:46:58;;;;;;;0.30;0.30;;;15.40;51.90;;;-141.50;100.00;62695.63;4952016;28;20670;-66
2022/04/20 05:49:25;;;;;;;0.30;0.30;;;16.00;50.70;;;-141.50;100.00;62695.63;4951708;28;20620;-66
2022/04/20 05:51:52;;;;;;;0.30;0.30;;;16.60;49.80;;;-141.50;100.00;62695.63;4955645;28;20636;-67
2022/04/20 05:54:19;;;;;;;0.30;0.30;;;17.20;49.10;;;-141.50;100.00;62695.63;4966236;28;20667;-66
2022/04/20 05:56:46;;;;;;;0.30;0.30;;;17.80;47.80;;;-141.50;100.00;62695.63;4967352;28;20646;-66
2022/04/20 05:59:13;;;;;;;0.47;0.47;;;18.20;47.30;;;-141.50;100.00;62695.63;4968058;28;20686;-66
2022/04/20 06:01:39;;;;;;;0.30;0.30;;;18.60;46.00;;;-141.50;100.00;62695.63;4959819;28;20642;-63
2022/04/20 06:04:06;;;;;;;0.30;0.30;;;19.00;45.60;;;-141.50;100.00;62695.63;4965260;28;20739;-65
2022/04/20 06:06:33;;;;;;;0.30;0.30;;;19.50;45.00;;;-141.50;100.00;62695.63;4968383;28;20667;-65
2022/04/20 06:09:00;;;;;;;0.30;0.30;;;20.30;44.20;;;-141.50;100.00;62695.63;4970698;28;20641;-66
2022/04/20 06:11:29;;;;;;;0.30;0.30;;;20.50;43.40;;;-141.50;100.00;62695.63;4969837;28;20627;-66
2022/04/20 06:13:57;;;;;;;0.30;0.30;;;21.30;42.30;;;-141.50;100.00;62695.63;4969909;28;20647;-66
2022/04/20 06:16:24;;;;;;;0.30;0.30;;;21.40;41.80;;;-141.50;100.00;62695.63;4957484;28;21152;-65
2022/04/20 06:18:51;;;;;;;0.30;0.30;;;21.90;41.10;;;-141.50;100.00;62695.63;4950672;28;21020;-65
2022/04/20 06:21:18;;;;;;;0.30;0.30;;;22.20;40.60;;;-141.50;100.00;62695.63;4966579;28;20643;-66
2022/04/20 06:23:45;;;;;;;0.30;0.30;;;22.40;40.60;;;-141.50;100.00;62695.63;4953924;28;20674;-65
2022/04/20 06:26:12;;;;;;;0.30;0.30;;;22.90;39.70;;;-141.50;100.00;62695.63;4951354;28;20611;-66
2022/04/20 06:28:39;;;;;;;0.40;0.40;;;22.20;39.50;;;-141.50;100.00;62695.63;4960817;28;20657;-66
2022/04/20 06:31:06;;;;;;;0.70;0.70;;;22.00;39.80;;;-141.50;100.00;62695.63;4962863;28;20636;-63
2022/04/20 06:33:33;;;;;;;1.67;1.57;;;22.40;39.80;;;-141.50;100.00;62695.63;4954316;28;20670;-65
2022/04/20 06:36:00;;;;;;;0.30;0.30;;;22.70;38.80;;;-141.50;100.00;62695.63;4952907;29;20628;-65
2022/04/20 06:38:28;;;;;;;0.30;0.30;;;23.10;38.70;;;-141.50;100.00;62695.63;4953714;28;20667;-65
2022/04/20 06:40:55;;;;;;;0.30;0.30;;;24.40;37.80;;;-141.50;100.00;62695.63;4971539;28;20642;-65
2022/04/20 06:43:22;;;;;;;0.30;0.30;;;24.70;36.50;;;-141.50;100.00;62695.63;4973332;28;20666;-66
2022/04/20 06:45:49;;;;;;;0.30;0.30;;;23.00;37.30;;;-141.50;100.00;62695.63;4970482;28;20646;-66
2022/04/20 06:48:16;;;;;;;0.30;0.30;;;22.20;38.90;;;-141.50;100.00;62695.63;4955257;28;20937;-66
2022/04/20 06:50:43;;;;;;;0.30;0.30;;;23.40;38.20;;;-141.50;100.00;62695.63;4956568;28;20643;-66
2022/04/20 06:58:42;;;;;;;0.30;0.30;;;27.40;34.60;;;-141.50;100.00;62695.63;4958939;28;21264;-66
2022/04/20 07:01:09;;;;;;;0.30;0.30;;;26.50;35.00;;;-141.50;100.00;62695.63;4958571;28;20642;-66
2022/04/20 07:03:37;;;;;;;0.30;0.30;;;27.10;34.30;;;-141.50;100.00;62695.63;4987563;28;21037;-67
2022/04/20 07:06:05;;;;;;;0.30;0.30;;;28.30;33.60;;;-141.50;100.00;62695.63;4970457;28;20616;-66
2022/04/20 07:08:34;;;;;;;0.30;0.30;;;28.70;33.80;;;-141.50;100.00;62695.63;4973908;28;21195;-65
2022/04/20 07:11:01;;;;;;;0.30;0.30;;;27.80;33.40;;;-141.50;100.00;62695.63;4957391;28;20735;-64
2022/04/20 07:13:28;;;;;;;0.30;0.30;;;27.40;33.50;;;-141.50;100.00;62695.63;4965754;28;20988;-66
2022/04/20 07:15:55;;;;;;;0.40;0.40;;;26.90;33.50;;;-141.50;100.00;62695.63;4954577;28;20636;-66
2022/04/20 07:18:23;;;;;;;0.30;0.30;;;26.90;34.40;;;-141.50;100.00;62695.63;4964883;28;20670;-66
2022/04/20 07:20:51;;;;;;;0.30;0.30;;;27.10;34.20;;;-141.50;100.00;62695.63;4964163;28;20632;-65
2022/04/20 07:23:18;;;;;;;0.40;0.40;;;27.40;33.90;;;-141.50;100.00;62695.63;4961052;28;20631;-65
2022/04/20 07:25:45;;;;;;;1.23;1.07;;;27.00;33.70;;;-141.50;100.00;62695.63;4972536;28;20714;-64
2022/04/20 07:28:17;;;;;;;0.40;0.40;;;27.00;33.40;;;-141.50;100.00;62695.63;4972488;28;21200;-66
2022/04/20 07:30:44;;;;;;;0.30;0.30;;;26.60;33.50;;;-141.50;100.00;62695.63;4959832;28;20735;-66
2022/04/20 07:33:15;;;;;;;0.33;0.33;;;26.40;33.30;;;-141.50;100.00;62695.63;4953506;29;21002;-65
2022/04/20 07:35:45;;;;;;;0.30;0.30;;;25.70;33.60;;;-141.50;100.00;62695.63;4953388;28;20682;-66
2022/04/20 07:38:13;;;;;;;0.30;0.30;;;25.40;34.00;;;-141.50;100.00;62695.63;4971532;28;20748;-66
2022/04/20 07:40:39;;;;;;;0.30;0.30;;;25.20;34.10;;;-141.50;100.00;62695.63;4972653;28;20658;-67
2022/04/20 07:43:06;;;;;;;0.30;0.30;;;24.60;34.30;;;-141.50;100.00;62695.63;4955261;28;21063;-67
2022/04/20 07:45:34;;;;;;;0.30;0.30;;;25.20;34.70;;;-141.50;100.00;62695.63;4952946;29;20650;-66
2022/04/20 07:48:01;;;;;;;0.30;0.30;;;24.20;34.70;;;-141.50;100.00;62695.63;4969342;28;20655;-67
2022/04/20 07:50:28;;;;;;;0.30;0.30;;;22.90;35.70;;;-141.50;100.00;62695.63;4971736;28;20670;-65
2022/04/20 07:52:58;;;;;;;0.30;0.30;;;23.40;35.60;;;-141.50;100.00;62695.63;4971140;28;20626;-67
2022/04/20 07:55:29;;;;;;;0.30;0.30;;;24.20;34.80;;;-141.50;100.00;62695.63;4968841;28;20615;-65
2022/04/20 07:57:58;;;;;;;0.30;0.30;;;23.40;34.90;;;-141.50;100.00;62695.63;4963356;28;20844;-66
2022/04/20 08:00:26;;;;;;;0.30;0.30;;;22.40;33.90;;;-141.50;100.00;62695.63;4969496;28;20647;-67
2022/04/20 08:03:17;;;;;;;0.30;0.30;;;22.20;34.90;;;-141.50;100.00;62695.63;4959424;28;20714;-66
2022/04/20 08:05:53;;;;;;;0.30;0.30;;;22.30;35.70;;;-141.50;100.00;62695.63;4958337;28;20648;-64
2022/04/20 08:08:22;;;;;;;0.60;0.60;;;23.60;34.90;;;-141.50;100.00;62695.63;4960436;28;20659;-66
2022/04/20 08:10:49;;;;;;;0.30;0.30;;;23.40;34.70;;;-141.50;100.00;62695.63;4970217;28;20621;-66
2022/04/20 08:16:01;;;;;;;0.70;0.70;;;24.10;34.60;;;-141.50;100.00;62695.63;4964578;28;20628;-66
2022/04/20 08:18:29;;;;;;;0.30;0.30;;;24.90;33.70;;;-141.50;100.00;62695.63;4956966;28;20673;-66
2022/04/20 08:20:55;;;;;;;0.30;0.30;;;25.50;33.20;;;-141.50;100.00;62695.63;4971751;28;20619;-66
2022/04/20 08:23:24;;;;;;;0.80;0.80;;;24.60;33.60;;;-141.50;100.00;62695.63;4966650;28;20631;-64
2022/04/20 08:25:51;;;;;;;0.30;0.30;;;24.30;33.30;;;-141.50;100.00;62695.63;4951924;28;20611;-66
2022/04/20 08:28:18;;;;;;;0.30;0.30;;;23.80;33.70;;;-141.50;100.00;62695.63;4951958;28;20640;-66
2022/04/20 08:30:45;;;;;;;0.30;0.30;;;24.20;33.50;;;-141.50;100.00;62695.63;4955151;28;20643;-65
2022/04/20 08:33:12;;;;;;;0.30;0.30;;;23.40;34.20;;;-141.50;100.00;62695.63;4955522;28;20671;-66
2022/04/20 08:35:39;;;;;;;0.60;0.60;;;24.10;33.90;;;-141.50;100.00;62695.63;4951457;28;21267;-66
2022/04/20 08:38:06;;;;;;;0.30;0.30;;;24.70;33.30;;;-141.50;100.00;62695.63;4961038;28;21326;-66
2022/04/20 08:40:34;;;;;;;0.50;0.50;;;25.90;33.10;;;-141.50;100.00;62695.63;4970767;28;20630;-66
2022/04/20 08:43:05;;;;;;;0.50;0.50;;;25.20;32.20;;;-141.50;100.00;62695.63;4969521;28;21026;-67
2022/04/20 08:45:37;;;;;;;0.30;0.30;;;26.40;32.30;;;-141.50;100.00;62695.63;4971620;28;20659;-67
2022/04/20 08:48:06;;;;;;;0.30;0.30;;;26.60;31.10;;;-141.50;100.00;62695.63;4951665;28;20788;-67
2022/04/20 08:50:33;;;;;;;0.40;0.30;;;27.50;30.60;;;-141.50;100.00;62695.63;4952591;28;20602;-67
2022/04/20 08:53:01;;;;;;;0.80;0.80;;;28.50;30.30;;;-141.50;100.00;62695.63;4959889;28;20631;-67
2022/04/20 08:55:28;;;;;;;0.30;0.30;;;28.50;29.80;;;-141.50;100.00;62695.63;4962752;28;21025;-67
2022/04/20 08:57:55;;;;;;;0.53;0.53;;;29.30;29.60;;;-141.50;100.00;62695.63;4969878;28;20675;-67
2022/04/20 09:00:27;;;;;;;0.40;0.30;;;27.00;30.20;;;-141.50;100.00;62695.63;4962254;28;20638;-67
2022/04/20 09:03:00;;;;;;;0.30;0.30;;;27.70;30.20;;;-141.50;100.00;62695.63;4952494;28;20613;-67
2022/04/20 09:05:33;;;;;;;0.30;0.30;;;29.50;30.00;;;-141.50;100.00;62695.63;4957472;28;20737;-67
2022/04/20 09:08:10;;;;;;;0.50;0.50;;;29.50;29.70;;;-141.50;100.00;62695.63;4966289;28;21287;-67
2022/04/20 09:10:38;;;;;;;0.40;0.30;;;31.80;29.10;;;-141.50;100.00;62695.63;4952543;28;20706;-64
2022/04/20 09:13:12;;;;;;;0.40;0.30;;;33.10;28.80;;;-141.50;100.00;62695.63;4969270;28;20636;-66
2022/04/20 09:15:40;;;;;;;0.40;0.30;;;33.20;28.30;;;-141.50;100.00;62695.63;4970526;28;20599;-67
2022/04/20 09:18:12;;;;;;;0.40;0.40;;;33.60;28.30;;;-141.50;100.00;62695.63;4971445;28;20643;-67
2022/04/20 09:20:39;;;;;;;0.40;0.40;;;34.20;28.30;;;-141.50;100.00;62695.63;4969404;28;20607;-64
2022/04/20 09:23:14;;;;;;;0.40;0.40;;;35.90;27.80;;;-141.50;100.00;62695.63;4960816;28;20627;-67
2022/04/20 09:25:50;;;;;;;0.40;0.40;;;36.60;27.20;;;-141.50;100.00;62695.63;4950810;28;20671;-65
2022/04/20 09:28:17;;;;;;;0.40;0.40;;;36.80;27.40;;;-141.50;100.00;62695.63;4963371;28;20673;-67
2022/04/20 09:30:44;;;;;;;0.40;0.40;;;35.20;27.40;;;-141.50;100.00;62695.63;4968839;28;20623;-67
2022/04/20 09:33:15;;;;;;;0.50;0.50;;;35.20;27.20;;;-141.50;100.00;62695.63;4957116;28;20627;-67
2022/04/20 09:35:49;;;;;;;0.40;0.40;;;36.30;27.30;;;-141.50;100.00;62695.63;4969585;28;20821;-64
2022/04/20 09:38:21;;;;;;;0.40;0.40;;;33.80;27.50;;;-141.50;100.00;62695.63;4972266;28;20694;-67
2022/04/20 09:40:49;;;;;;;0.40;0.40;;;34.10;27.60;;;-141.50;100.00;62695.63;4968738;28;20627;-65
2022/04/20 09:43:19;;;;;;;0.30;0.30;;;35.00;27.60;;;-141.50;100.00;62695.63;4970374;28;20714;-67
2022/04/20 09:49:09;;;;;;;0.30;0.30;;;33.40;27.60;;;-141.50;100.00;62695.63;4949789;29;20707;-66
2022/04/20 09:51:41;;;;;;;7.90;2.63;;;33.00;27.60;;;-141.50;100.00;62695.63;4963206;28;20654;-68
2022/04/20 09:54:29;;;;;;;0.50;0.50;;;34.80;27.60;;;-141.50;100.00;62695.63;4957348;28;20624;-64
2022/04/20 09:57:14;;;;;;;0.40;0.40;;;35.90;27.20;;;-141.50;100.00;62695.63;4963940;28;20667;-65
2022/04/20 10:00:06;;;;;;;0.40;0.40;;;36.80;27.10;;;-141.50;100.00;62695.63;4961168;28;21195;-66
2022/04/20 10:02:51;;;;;;;0.40;0.40;;;37.60;26.70;;;-141.50;100.00;62695.63;4966372;28;20642;-66
2022/04/20 10:05:22;;;;;;;0.40;0.40;;;37.50;26.50;;;-141.50;100.00;62695.63;4973494;28;21286;-67
2022/04/20 10:07:54;;;;;;;0.40;0.40;;;35.30;26.80;;;-141.50;100.00;62695.63;4967246;28;20721;-67
2022/04/20 10:10:21;;;;;;;0.40;0.40;;;34.40;27.10;;;-141.50;100.00;62695.63;4975160;28;21090;-66
2022/04/20 10:12:54;;;;;;;0.40;0.40;;;34.30;27.10;;;-141.50;100.00;62695.63;4974148;28;20646;-66
2022/04/20 10:18:21;;;;;;;0.40;0.30;;;32.40;27.10;;;-141.50;100.00;62695.63;4954758;28;20710;-66
2022/04/20 10:20:51;;;;;;;0.40;0.30;;;32.90;27.50;;;-141.50;100.00;62695.63;4951646;28;21145;-65
2022/04/20 10:23:21;;;;;;;0.40;0.30;;;32.70;27.30;;;-141.50;100.00;62695.63;4958871;28;20639;-65
2022/04/20 10:25:51;;;;;;;0.93;0.93;;;31.90;27.30;;;-141.50;100.00;62695.63;4953957;28;20648;-66
2022/04/20 10:28:27;;;;;;;0.40;0.30;;;31.30;28.20;;;-141.50;100.00;62695.63;4971181;28;20643;-64